sensor_id;sensor_type;location;lat;lon;timestamp;P1;durP1;ratioP1;P2;durP2;ratioP2
21424;SDS011;10873;51.132;16.848;2023-01-01T00:00:12;6.40;;;3.60;;
21424;SDS011;10873;51.132;16.848;2023-01-01T00:02:41;5.75;;;3.60;;
21424;SDS011;10873;51.132;16.848;2023-01-01T00:05:07;6.25;;;3.80;;
21424;SDS011;10873;51.132;16.848;2023-01-01T00:07:33;5.68;;;3.78;;
21424;SDS011;10873;51.132;16.848;2023-01-01T00:09:59;5.78;;;3.58;;
21424;SDS011;10873;51.132;16.848;2023-01-01T00:12:44;4.18;;;3.15;;
21424;SDS011;10873;51.132;16.848;2023-01-01T00:15:10;7.72;;;3.92;;
21424;SDS011;10873;51.132;16.848;2023-01-01T00:17:36;6.43;;;4.05;;
21424;SDS011;10873;51.132;16.848;2023-01-01T00:20:04;7.53;;;4.20;;
21424;SDS011;10873;51.132;16.848;2023-01-01T00:22:32;7.55;;;4.05;;
21424;SDS011;10873;51.132;16.848;2023-01-01T00:24:58;6.85;;;4.20;;
21424;SDS011;10873;51.132;16.848;2023-01-01T00:27:24;6.28;;;4.00;;
21424;SDS011;10873;51.132;16.848;2023-01-01T00:37:38;5.50;;;3.80;;
21424;SDS011;10873;51.132;16.848;2023-01-01T00:40:04;5.22;;;3.80;;
21424;SDS011;10873;51.132;16.848;2023-01-01T00:42:31;6.70;;;3.92;;
21424;SDS011;10873;51.132;16.848;2023-01-01T00:44:57;4.75;;;3.28;;
21424;SDS011;10873;51.132;16.848;2023-01-01T00:47:23;8.27;;;4.00;;
21424;SDS011;10873;51.132;16.848;2023-01-01T00:49:49;5.30;;;3.70;;
21424;SDS011;10873;51.132;16.848;2023-01-01T00:52:15;5.15;;;3.53;;
21424;SDS011;10873;51.132;16.848;2023-01-01T00:54:43;4.65;;;3.33;;
21424;SDS011;10873;51.132;16.848;2023-01-01T00:57:08;5.35;;;3.47;;
21424;SDS011;10873;51.132;16.848;2023-01-01T00:59:35;5.93;;;3.75;;
21424;SDS011;10873;51.132;16.848;2023-01-01T01:02:01;5.93;;;3.67;;
21424;SDS011;10873;51.132;16.848;2023-01-01T01:04:27;6.15;;;3.30;;
21424;SDS011;10873;51.132;16.848;2023-01-01T01:06:53;5.93;;;3.47;;
21424;SDS011;10873;51.132;16.848;2023-01-01T01:09:19;5.47;;;3.53;;
21424;SDS011;10873;51.132;16.848;2023-01-01T01:11:46;5.75;;;3.38;;
21424;SDS011;10873;51.132;16.848;2023-01-01T01:14:13;4.40;;;3.03;;
21424;SDS011;10873;51.132;16.848;2023-01-01T01:16:39;3.88;;;2.88;;
21424;SDS011;10873;51.132;16.848;2023-01-01T01:19:05;4.95;;;3.40;;
21424;SDS011;10873;51.132;16.848;2023-01-01T01:21:32;3.90;;;3.22;;
21424;SDS011;10873;51.132;16.848;2023-01-01T01:24:00;4.25;;;3.00;;
21424;SDS011;10873;51.132;16.848;2023-01-01T01:26:27;5.57;;;3.35;;
21424;SDS011;10873;51.132;16.848;2023-01-01T01:28:56;5.30;;;3.13;;
21424;SDS011;10873;51.132;16.848;2023-01-01T01:31:23;4.57;;;3.08;;
21424;SDS011;10873;51.132;16.848;2023-01-01T01:33:51;4.38;;;3.03;;
21424;SDS011;10873;51.132;16.848;2023-01-01T01:36:17;4.07;;;2.90;;
21424;SDS011;10873;51.132;16.848;2023-01-01T01:38:44;3.60;;;2.70;;
21424;SDS011;10873;51.132;16.848;2023-01-01T01:41:11;3.70;;;2.88;;
21424;SDS011;10873;51.132;16.848;2023-01-01T01:43:46;3.75;;;2.92;;
21424;SDS011;10873;51.132;16.848;2023-01-01T01:46:18;4.85;;;2.97;;
21424;SDS011;10873;51.132;16.848;2023-01-01T01:48:48;5.15;;;2.83;;
21424;SDS011;10873;51.132;16.848;2023-01-01T01:51:17;4.60;;;2.97;;
21424;SDS011;10873;51.132;16.848;2023-01-01T01:53:48;3.72;;;2.90;;
21424;SDS011;10873;51.132;16.848;2023-01-01T01:56:17;5.38;;;2.90;;
21424;SDS011;10873;51.132;16.848;2023-01-01T01:58:48;4.20;;;3.03;;
21424;SDS011;10873;51.132;16.848;2023-01-01T02:01:14;4.22;;;2.97;;
21424;SDS011;10873;51.132;16.848;2023-01-01T02:03:42;3.90;;;2.88;;
21424;SDS011;10873;51.132;16.848;2023-01-01T02:06:16;3.83;;;2.92;;
21424;SDS011;10873;51.132;16.848;2023-01-01T02:08:43;3.20;;;2.67;;
21424;SDS011;10873;51.132;16.848;2023-01-01T02:11:10;4.93;;;2.90;;
21424;SDS011;10873;51.132;16.848;2023-01-01T02:13:36;3.13;;;2.65;;
21424;SDS011;10873;51.132;16.848;2023-01-01T02:16:03;3.83;;;2.60;;
21424;SDS011;10873;51.132;16.848;2023-01-01T02:18:38;4.03;;;2.70;;
21424;SDS011;10873;51.132;16.848;2023-01-01T02:21:11;4.15;;;2.50;;
21424;SDS011;10873;51.132;16.848;2023-01-01T02:23:48;3.50;;;2.65;;
21424;SDS011;10873;51.132;16.848;2023-01-01T02:26:36;3.83;;;2.75;;
21424;SDS011;10873;51.132;16.848;2023-01-01T02:29:12;4.13;;;2.70;;
21424;SDS011;10873;51.132;16.848;2023-01-01T02:31:46;3.95;;;2.75;;
21424;SDS011;10873;51.132;16.848;2023-01-01T02:34:16;3.80;;;2.50;;
21424;SDS011;10873;51.132;16.848;2023-01-01T02:36:47;4.93;;;2.72;;
21424;SDS011;10873;51.132;16.848;2023-01-01T02:39:15;4.40;;;2.60;;
21424;SDS011;10873;51.132;16.848;2023-01-01T02:41:46;3.42;;;2.58;;
21424;SDS011;10873;51.132;16.848;2023-01-01T02:44:16;3.78;;;2.55;;
21424;SDS011;10873;51.132;16.848;2023-01-01T02:46:43;3.65;;;2.63;;
21424;SDS011;10873;51.132;16.848;2023-01-01T02:49:10;3.78;;;2.50;;
21424;SDS011;10873;51.132;16.848;2023-01-01T02:51:40;4.43;;;2.58;;
21424;SDS011;10873;51.132;16.848;2023-01-01T02:54:17;4.32;;;2.50;;
21424;SDS011;10873;51.132;16.848;2023-01-01T02:56:54;2.83;;;2.35;;
21424;SDS011;10873;51.132;16.848;2023-01-01T02:59:28;3.33;;;2.35;;
21424;SDS011;10873;51.132;16.848;2023-01-01T03:02:23;3.90;;;2.25;;
21424;SDS011;10873;51.132;16.848;2023-01-01T03:05:01;3.72;;;2.40;;
21424;SDS011;10873;51.132;16.848;2023-01-01T03:07:35;3.72;;;2.35;;
21424;SDS011;10873;51.132;16.848;2023-01-01T03:10:06;2.97;;;2.20;;
21424;SDS011;10873;51.132;16.848;2023-01-01T03:12:41;2.72;;;2.22;;
21424;SDS011;10873;51.132;16.848;2023-01-01T03:15:19;3.85;;;2.33;;
21424;SDS011;10873;51.132;16.848;2023-01-01T03:17:54;3.55;;;2.55;;
21424;SDS011;10873;51.132;16.848;2023-01-01T03:20:27;3.58;;;2.55;;
21424;SDS011;10873;51.132;16.848;2023-01-01T03:22:57;3.47;;;2.30;;
21424;SDS011;10873;51.132;16.848;2023-01-01T03:25:28;3.58;;;2.72;;
21424;SDS011;10873;51.132;16.848;2023-01-01T03:27:58;3.58;;;2.40;;
21424;SDS011;10873;51.132;16.848;2023-01-01T03:30:29;3.90;;;2.97;;
21424;SDS011;10873;51.132;16.848;2023-01-01T03:32:58;2.67;;;2.20;;
21424;SDS011;10873;51.132;16.848;2023-01-01T03:35:29;3.17;;;2.28;;
21424;SDS011;10873;51.132;16.848;2023-01-01T03:37:59;2.72;;;2.35;;
21424;SDS011;10873;51.132;16.848;2023-01-01T03:40:28;2.78;;;2.22;;
21424;SDS011;10873;51.132;16.848;2023-01-01T03:42:58;3.15;;;2.25;;
21424;SDS011;10873;51.132;16.848;2023-01-01T03:45:34;3.00;;;2.40;;
21424;SDS011;10873;51.132;16.848;2023-01-01T03:48:03;2.58;;;2.30;;
21424;SDS011;10873;51.132;16.848;2023-01-01T03:50:34;3.05;;;2.25;;
21424;SDS011;10873;51.132;16.848;2023-01-01T03:53:10;3.13;;;2.38;;
21424;SDS011;10873;51.132;16.848;2023-01-01T03:55:44;2.60;;;2.35;;
21424;SDS011;10873;51.132;16.848;2023-01-01T03:58:16;3.92;;;2.72;;
21424;SDS011;10873;51.132;16.848;2023-01-01T04:00:48;3.15;;;2.28;;
21424;SDS011;10873;51.132;16.848;2023-01-01T04:03:21;2.75;;;2.38;;
21424;SDS011;10873;51.132;16.848;2023-01-01T04:05:50;4.35;;;2.70;;
21424;SDS011;10873;51.132;16.848;2023-01-01T04:08:16;3.60;;;2.60;;
21424;SDS011;10873;51.132;16.848;2023-01-01T04:10:43;3.75;;;2.40;;
21424;SDS011;10873;51.132;16.848;2023-01-01T04:13:13;3.90;;;2.65;;
21424;SDS011;10873;51.132;16.848;2023-01-01T04:15:40;3.92;;;2.47;;
21424;SDS011;10873;51.132;16.848;2023-01-01T04:18:07;5.30;;;2.70;;
21424;SDS011;10873;51.132;16.848;2023-01-01T04:20:33;3.17;;;2.35;;
21424;SDS011;10873;51.132;16.848;2023-01-01T04:22:59;4.22;;;2.67;;
21424;SDS011;10873;51.132;16.848;2023-01-01T04:25:27;3.80;;;2.60;;
21424;SDS011;10873;51.132;16.848;2023-01-01T04:27:53;5.03;;;3.00;;
21424;SDS011;10873;51.132;16.848;2023-01-01T04:30:19;4.03;;;2.60;;
21424;SDS011;10873;51.132;16.848;2023-01-01T04:32:45;3.78;;;2.63;;
21424;SDS011;10873;51.132;16.848;2023-01-01T04:35:13;5.03;;;3.00;;
21424;SDS011;10873;51.132;16.848;2023-01-01T04:37:40;4.00;;;2.72;;
21424;SDS011;10873;51.132;16.848;2023-01-01T04:40:08;3.15;;;2.40;;
21424;SDS011;10873;51.132;16.848;2023-01-01T04:42:35;2.95;;;2.30;;
21424;SDS011;10873;51.132;16.848;2023-01-01T04:45:01;3.05;;;2.50;;
21424;SDS011;10873;51.132;16.848;2023-01-01T04:47:28;4.57;;;2.60;;
21424;SDS011;10873;51.132;16.848;2023-01-01T04:49:55;3.17;;;2.50;;
21424;SDS011;10873;51.132;16.848;2023-01-01T04:52:22;2.95;;;2.30;;
21424;SDS011;10873;51.132;16.848;2023-01-01T04:54:48;3.00;;;2.38;;
21424;SDS011;10873;51.132;16.848;2023-01-01T04:57:14;3.28;;;2.70;;
21424;SDS011;10873;51.132;16.848;2023-01-01T04:59:40;3.75;;;2.38;;
21424;SDS011;10873;51.132;16.848;2023-01-01T05:02:06;4.78;;;2.83;;
21424;SDS011;10873;51.132;16.848;2023-01-01T05:04:32;3.25;;;2.47;;
21424;SDS011;10873;51.132;16.848;2023-01-01T05:06:58;2.67;;;2.17;;
21424;SDS011;10873;51.132;16.848;2023-01-01T05:09:26;3.20;;;2.45;;
21424;SDS011;10873;51.132;16.848;2023-01-01T05:11:52;2.88;;;2.30;;
21424;SDS011;10873;51.132;16.848;2023-01-01T05:14:19;3.38;;;2.45;;
21424;SDS011;10873;51.132;16.848;2023-01-01T05:16:45;3.92;;;2.35;;
21424;SDS011;10873;51.132;16.848;2023-01-01T05:19:11;3.22;;;2.60;;
21424;SDS011;10873;51.132;16.848;2023-01-01T05:21:38;2.85;;;2.22;;
21424;SDS011;10873;51.132;16.848;2023-01-01T05:24:06;3.83;;;2.47;;
21424;SDS011;10873;51.132;16.848;2023-01-01T05:26:35;3.08;;;2.50;;
21424;SDS011;10873;51.132;16.848;2023-01-01T05:29:03;2.70;;;2.45;;
21424;SDS011;10873;51.132;16.848;2023-01-01T05:31:30;3.10;;;2.38;;
21424;SDS011;10873;51.132;16.848;2023-01-01T05:33:57;3.58;;;2.47;;
21424;SDS011;10873;51.132;16.848;2023-01-01T05:36:24;2.95;;;2.38;;
21424;SDS011;10873;51.132;16.848;2023-01-01T05:38:52;3.30;;;2.50;;
21424;SDS011;10873;51.132;16.848;2023-01-01T05:41:18;4.57;;;2.53;;
21424;SDS011;10873;51.132;16.848;2023-01-01T05:43:47;3.38;;;2.45;;
21424;SDS011;10873;51.132;16.848;2023-01-01T05:46:14;3.30;;;2.55;;
21424;SDS011;10873;51.132;16.848;2023-01-01T05:48:43;3.15;;;2.58;;
21424;SDS011;10873;51.132;16.848;2023-01-01T05:51:09;2.83;;;2.40;;
21424;SDS011;10873;51.132;16.848;2023-01-01T05:53:37;2.55;;;2.33;;
21424;SDS011;10873;51.132;16.848;2023-01-01T05:56:04;3.50;;;2.97;;
21424;SDS011;10873;51.132;16.848;2023-01-01T05:58:31;3.28;;;2.42;;
21424;SDS011;10873;51.132;16.848;2023-01-01T06:01:05;3.42;;;2.33;;
21424;SDS011;10873;51.132;16.848;2023-01-01T06:03:32;5.13;;;2.83;;
21424;SDS011;10873;51.132;16.848;2023-01-01T06:06:01;3.25;;;2.40;;
21424;SDS011;10873;51.132;16.848;2023-01-01T06:08:28;2.97;;;2.42;;
21424;SDS011;10873;51.132;16.848;2023-01-01T06:10:56;2.72;;;2.25;;
21424;SDS011;10873;51.132;16.848;2023-01-01T06:13:23;2.40;;;2.20;;
21424;SDS011;10873;51.132;16.848;2023-01-01T06:15:51;2.75;;;2.20;;
21424;SDS011;10873;51.132;16.848;2023-01-01T06:18:20;2.72;;;2.10;;
21424;SDS011;10873;51.132;16.848;2023-01-01T06:20:46;3.67;;;2.15;;
21424;SDS011;10873;51.132;16.848;2023-01-01T06:23:12;3.00;;;2.53;;
21424;SDS011;10873;51.132;16.848;2023-01-01T06:25:38;3.15;;;2.30;;
21424;SDS011;10873;51.132;16.848;2023-01-01T06:28:05;2.60;;;2.40;;
21424;SDS011;10873;51.132;16.848;2023-01-01T06:30:30;4.13;;;2.50;;
21424;SDS011;10873;51.132;16.848;2023-01-01T06:32:58;4.15;;;2.47;;
21424;SDS011;10873;51.132;16.848;2023-01-01T06:35:26;2.97;;;2.22;;
21424;SDS011;10873;51.132;16.848;2023-01-01T06:37:52;2.75;;;2.28;;
21424;SDS011;10873;51.132;16.848;2023-01-01T06:40:18;2.92;;;2.42;;
21424;SDS011;10873;51.132;16.848;2023-01-01T06:42:45;3.25;;;2.20;;
21424;SDS011;10873;51.132;16.848;2023-01-01T06:45:11;4.88;;;2.35;;
21424;SDS011;10873;51.132;16.848;2023-01-01T06:47:37;2.78;;;2.25;;
21424;SDS011;10873;51.132;16.848;2023-01-01T06:50:04;2.67;;;2.35;;
21424;SDS011;10873;51.132;16.848;2023-01-01T06:52:32;3.45;;;2.42;;
21424;SDS011;10873;51.132;16.848;2023-01-01T06:54:58;2.53;;;2.13;;
21424;SDS011;10873;51.132;16.848;2023-01-01T06:57:24;3.72;;;2.38;;
21424;SDS011;10873;51.132;16.848;2023-01-01T06:59:50;2.50;;;2.13;;
21424;SDS011;10873;51.132;16.848;2023-01-01T07:02:16;5.70;;;2.50;;
21424;SDS011;10873;51.132;16.848;2023-01-01T07:04:42;3.15;;;2.55;;
21424;SDS011;10873;51.132;16.848;2023-01-01T07:07:08;4.10;;;2.55;;
21424;SDS011;10873;51.132;16.848;2023-01-01T07:09:35;3.20;;;2.35;;
21424;SDS011;10873;51.132;16.848;2023-01-01T07:12:02;3.08;;;2.35;;
21424;SDS011;10873;51.132;16.848;2023-01-01T07:14:28;3.38;;;2.50;;
21424;SDS011;10873;51.132;16.848;2023-01-01T07:16:54;3.33;;;2.42;;
21424;SDS011;10873;51.132;16.848;2023-01-01T07:19:20;2.45;;;2.13;;
21424;SDS011;10873;51.132;16.848;2023-01-01T07:21:50;2.88;;;2.38;;
21424;SDS011;10873;51.132;16.848;2023-01-01T07:24:17;3.13;;;2.75;;
21424;SDS011;10873;51.132;16.848;2023-01-01T07:26:44;5.07;;;2.38;;
21424;SDS011;10873;51.132;16.848;2023-01-01T07:29:11;4.60;;;2.58;;
21424;SDS011;10873;51.132;16.848;2023-01-01T07:31:38;3.92;;;2.42;;
21424;SDS011;10873;51.132;16.848;2023-01-01T07:34:05;4.10;;;2.30;;
21424;SDS011;10873;51.132;16.848;2023-01-01T07:36:31;4.28;;;2.40;;
21424;SDS011;10873;51.132;16.848;2023-01-01T07:38:58;3.42;;;2.30;;
21424;SDS011;10873;51.132;16.848;2023-01-01T07:41:24;4.68;;;2.75;;
21424;SDS011;10873;51.132;16.848;2023-01-01T07:43:51;6.10;;;3.00;;
21424;SDS011;10873;51.132;16.848;2023-01-01T07:46:17;5.32;;;2.83;;
21424;SDS011;10873;51.132;16.848;2023-01-01T07:48:43;4.05;;;2.35;;
21424;SDS011;10873;51.132;16.848;2023-01-01T07:51:10;3.90;;;2.58;;
21424;SDS011;10873;51.132;16.848;2023-01-01T07:53:36;5.25;;;3.00;;
21424;SDS011;10873;51.132;16.848;2023-01-01T07:56:02;7.03;;;2.80;;
21424;SDS011;10873;51.132;16.848;2023-01-01T07:58:28;5.20;;;3.00;;
21424;SDS011;10873;51.132;16.848;2023-01-01T08:00:56;6.20;;;2.90;;
21424;SDS011;10873;51.132;16.848;2023-01-01T08:03:22;3.05;;;2.65;;
21424;SDS011;10873;51.132;16.848;2023-01-01T08:05:48;3.88;;;2.55;;
21424;SDS011;10873;51.132;16.848;2023-01-01T08:08:15;5.20;;;3.05;;
21424;SDS011;10873;51.132;16.848;2023-01-01T08:10:41;5.78;;;3.00;;
21424;SDS011;10873;51.132;16.848;2023-01-01T08:13:07;5.47;;;2.65;;
21424;SDS011;10873;51.132;16.848;2023-01-01T08:15:34;3.83;;;2.60;;
21424;SDS011;10873;51.132;16.848;2023-01-01T08:18:02;4.88;;;2.90;;
21424;SDS011;10873;51.132;16.848;2023-01-01T08:20:30;5.65;;;2.85;;
21424;SDS011;10873;51.132;16.848;2023-01-01T08:22:56;7.35;;;2.92;;
21424;SDS011;10873;51.132;16.848;2023-01-01T08:25:23;4.78;;;2.85;;
21424;SDS011;10873;51.132;16.848;2023-01-01T08:27:48;6.35;;;3.00;;
21424;SDS011;10873;51.132;16.848;2023-01-01T08:30:15;4.75;;;2.70;;
21424;SDS011;10873;51.132;16.848;2023-01-01T08:32:41;4.35;;;2.60;;
21424;SDS011;10873;51.132;16.848;2023-01-01T08:35:09;5.35;;;2.80;;
21424;SDS011;10873;51.132;16.848;2023-01-01T08:37:35;6.68;;;3.20;;
21424;SDS011;10873;51.132;16.848;2023-01-01T08:40:01;3.60;;;2.42;;
21424;SDS011;10873;51.132;16.848;2023-01-01T08:42:27;4.45;;;2.75;;
21424;SDS011;10873;51.132;16.848;2023-01-01T08:44:54;4.60;;;2.45;;
21424;SDS011;10873;51.132;16.848;2023-01-01T08:47:20;5.45;;;2.75;;
21424;SDS011;10873;51.132;16.848;2023-01-01T08:49:47;7.28;;;2.58;;
21424;SDS011;10873;51.132;16.848;2023-01-01T08:52:15;5.75;;;3.10;;
21424;SDS011;10873;51.132;16.848;2023-01-01T08:54:42;7.53;;;3.22;;
21424;SDS011;10873;51.132;16.848;2023-01-01T08:57:08;7.03;;;2.83;;
21424;SDS011;10873;51.132;16.848;2023-01-01T08:59:34;7.05;;;2.90;;
21424;SDS011;10873;51.132;16.848;2023-01-01T09:02:01;4.70;;;3.25;;
21424;SDS011;10873;51.132;16.848;2023-01-01T09:04:27;5.13;;;3.08;;
21424;SDS011;10873;51.132;16.848;2023-01-01T09:06:53;4.55;;;2.50;;
21424;SDS011;10873;51.132;16.848;2023-01-01T09:09:21;3.78;;;2.72;;
21424;SDS011;10873;51.132;16.848;2023-01-01T09:11:49;6.10;;;2.55;;
21424;SDS011;10873;51.132;16.848;2023-01-01T09:14:16;4.78;;;2.88;;
21424;SDS011;10873;51.132;16.848;2023-01-01T09:16:42;6.10;;;3.10;;
21424;SDS011;10873;51.132;16.848;2023-01-01T09:19:08;5.80;;;3.03;;
21424;SDS011;10873;51.132;16.848;2023-01-01T09:21:34;4.13;;;2.90;;
21424;SDS011;10873;51.132;16.848;2023-01-01T09:24:00;6.22;;;3.20;;
21424;SDS011;10873;51.132;16.848;2023-01-01T09:26:28;5.07;;;2.80;;
21424;SDS011;10873;51.132;16.848;2023-01-01T09:28:54;4.28;;;2.83;;
21424;SDS011;10873;51.132;16.848;2023-01-01T09:31:20;5.88;;;2.83;;
21424;SDS011;10873;51.132;16.848;2023-01-01T09:33:46;4.07;;;2.70;;
21424;SDS011;10873;51.132;16.848;2023-01-01T09:36:13;3.72;;;2.72;;
21424;SDS011;10873;51.132;16.848;2023-01-01T09:38:40;5.47;;;2.58;;
21424;SDS011;10873;51.132;16.848;2023-01-01T09:41:09;6.47;;;2.97;;
21424;SDS011;10873;51.132;16.848;2023-01-01T09:43:44;5.40;;;2.72;;
21424;SDS011;10873;51.132;16.848;2023-01-01T09:46:17;5.85;;;2.70;;
21424;SDS011;10873;51.132;16.848;2023-01-01T09:48:45;3.90;;;2.35;;
21424;SDS011;10873;51.132;16.848;2023-01-01T09:51:17;4.13;;;2.50;;
21424;SDS011;10873;51.132;16.848;2023-01-01T09:53:47;4.15;;;2.33;;
21424;SDS011;10873;51.132;16.848;2023-01-01T09:56:18;5.20;;;2.80;;
21424;SDS011;10873;51.132;16.848;2023-01-01T09:58:49;4.13;;;2.47;;
21424;SDS011;10873;51.132;16.848;2023-01-01T10:01:18;6.88;;;3.20;;
21424;SDS011;10873;51.132;16.848;2023-01-01T10:03:57;4.10;;;2.63;;
21424;SDS011;10873;51.132;16.848;2023-01-01T10:06:29;4.80;;;2.90;;
21424;SDS011;10873;51.132;16.848;2023-01-01T10:09:04;6.65;;;2.50;;
21424;SDS011;10873;51.132;16.848;2023-01-01T10:11:39;5.90;;;2.55;;
21424;SDS011;10873;51.132;16.848;2023-01-01T10:14:14;3.75;;;2.63;;
21424;SDS011;10873;51.132;16.848;2023-01-01T10:16:46;3.33;;;2.42;;
21424;SDS011;10873;51.132;16.848;2023-01-01T10:19:19;3.45;;;2.60;;
21424;SDS011;10873;51.132;16.848;2023-01-01T10:21:50;3.95;;;2.65;;
21424;SDS011;10873;51.132;16.848;2023-01-01T10:24:34;5.68;;;2.75;;
21424;SDS011;10873;51.132;16.848;2023-01-01T10:27:08;3.72;;;2.50;;
21424;SDS011;10873;51.132;16.848;2023-01-01T10:29:45;5.70;;;2.67;;
21424;SDS011;10873;51.132;16.848;2023-01-01T10:32:16;3.50;;;2.70;;
21424;SDS011;10873;51.132;16.848;2023-01-01T10:34:44;3.60;;;2.50;;
21424;SDS011;10873;51.132;16.848;2023-01-01T10:37:11;4.38;;;2.58;;
21424;SDS011;10873;51.132;16.848;2023-01-01T10:39:39;3.40;;;2.50;;
21424;SDS011;10873;51.132;16.848;2023-01-01T10:42:08;4.28;;;2.60;;
21424;SDS011;10873;51.132;16.848;2023-01-01T10:44:36;4.78;;;2.53;;
21424;SDS011;10873;51.132;16.848;2023-01-01T10:47:08;3.45;;;2.50;;
21424;SDS011;10873;51.132;16.848;2023-01-01T10:49:52;3.28;;;2.35;;
21424;SDS011;10873;51.132;16.848;2023-01-01T10:52:20;4.70;;;2.50;;
21424;SDS011;10873;51.132;16.848;2023-01-01T10:54:50;5.10;;;2.70;;
21424;SDS011;10873;51.132;16.848;2023-01-01T10:57:17;3.35;;;2.45;;
21424;SDS011;10873;51.132;16.848;2023-01-01T10:59:53;3.83;;;2.30;;
21424;SDS011;10873;51.132;16.848;2023-01-01T11:02:34;4.32;;;2.35;;
21424;SDS011;10873;51.132;16.848;2023-01-01T11:05:11;5.15;;;2.78;;
21424;SDS011;10873;51.132;16.848;2023-01-01T11:07:40;5.18;;;2.53;;
21424;SDS011;10873;51.132;16.848;2023-01-01T11:10:11;3.83;;;2.67;;
21424;SDS011;10873;51.132;16.848;2023-01-01T11:12:42;3.30;;;2.78;;
21424;SDS011;10873;51.132;16.848;2023-01-01T11:15:18;3.78;;;2.65;;
21424;SDS011;10873;51.132;16.848;2023-01-01T11:17:47;4.18;;;2.67;;
21424;SDS011;10873;51.132;16.848;2023-01-01T11:20:15;3.17;;;2.25;;
21424;SDS011;10873;51.132;16.848;2023-01-01T11:22:43;3.25;;;2.50;;
21424;SDS011;10873;51.132;16.848;2023-01-01T11:25:17;3.55;;;2.85;;
21424;SDS011;10873;51.132;16.848;2023-01-01T11:27:45;3.97;;;2.63;;
21424;SDS011;10873;51.132;16.848;2023-01-01T11:30:17;3.83;;;2.63;;
21424;SDS011;10873;51.132;16.848;2023-01-01T11:32:45;3.90;;;2.78;;
21424;SDS011;10873;51.132;16.848;2023-01-01T11:35:15;3.85;;;2.72;;
21424;SDS011;10873;51.132;16.848;2023-01-01T11:37:44;6.30;;;2.60;;
21424;SDS011;10873;51.132;16.848;2023-01-01T11:40:15;3.13;;;2.50;;
21424;SDS011;10873;51.132;16.848;2023-01-01T11:42:44;4.60;;;2.70;;
21424;SDS011;10873;51.132;16.848;2023-01-01T11:45:15;3.53;;;2.60;;
21424;SDS011;10873;51.132;16.848;2023-01-01T11:47:44;3.92;;;2.50;;
21424;SDS011;10873;51.132;16.848;2023-01-01T11:50:21;4.90;;;2.97;;
21424;SDS011;10873;51.132;16.848;2023-01-01T11:52:52;3.97;;;2.60;;
21424;SDS011;10873;51.132;16.848;2023-01-01T11:55:21;4.15;;;2.42;;
21424;SDS011;10873;51.132;16.848;2023-01-01T11:57:56;3.10;;;2.47;;
21424;SDS011;10873;51.132;16.848;2023-01-01T12:00:28;3.33;;;2.40;;
21424;SDS011;10873;51.132;16.848;2023-01-01T12:03:00;4.38;;;2.75;;
21424;SDS011;10873;51.132;16.848;2023-01-01T12:05:38;3.55;;;2.85;;
21424;SDS011;10873;51.132;16.848;2023-01-01T12:08:10;3.63;;;2.35;;
21424;SDS011;10873;51.132;16.848;2023-01-01T12:10:40;4.40;;;2.60;;
21424;SDS011;10873;51.132;16.848;2023-01-01T12:13:14;3.88;;;2.63;;
21424;SDS011;10873;51.132;16.848;2023-01-01T12:15:45;2.95;;;2.38;;
21424;SDS011;10873;51.132;16.848;2023-01-01T12:18:19;4.32;;;2.78;;
21424;SDS011;10873;51.132;16.848;2023-01-01T12:20:51;3.10;;;2.80;;
21424;SDS011;10873;51.132;16.848;2023-01-01T12:23:21;3.20;;;2.42;;
21424;SDS011;10873;51.132;16.848;2023-01-01T12:25:49;4.10;;;2.67;;
21424;SDS011;10873;51.132;16.848;2023-01-01T12:28:22;3.67;;;2.60;;
21424;SDS011;10873;51.132;16.848;2023-01-01T12:30:58;3.00;;;2.50;;
21424;SDS011;10873;51.132;16.848;2023-01-01T12:33:38;5.00;;;2.50;;
21424;SDS011;10873;51.132;16.848;2023-01-01T12:36:18;5.30;;;2.40;;
21424;SDS011;10873;51.132;16.848;2023-01-01T12:39:04;4.10;;;2.67;;
21424;SDS011;10873;51.132;16.848;2023-01-01T12:41:48;4.18;;;2.70;;
21424;SDS011;10873;51.132;16.848;2023-01-01T12:44:27;3.95;;;2.30;;
21424;SDS011;10873;51.132;16.848;2023-01-01T12:46:58;3.35;;;2.40;;
21424;SDS011;10873;51.132;16.848;2023-01-01T12:49:38;3.38;;;2.45;;
21424;SDS011;10873;51.132;16.848;2023-01-01T12:52:24;3.70;;;2.40;;
21424;SDS011;10873;51.132;16.848;2023-01-01T12:55:03;3.97;;;2.70;;
21424;SDS011;10873;51.132;16.848;2023-01-01T12:57:48;3.40;;;2.42;;
21424;SDS011;10873;51.132;16.848;2023-01-01T13:00:19;3.78;;;2.72;;
21424;SDS011;10873;51.132;16.848;2023-01-01T13:02:47;3.95;;;2.20;;
21424;SDS011;10873;51.132;16.848;2023-01-01T13:05:17;4.93;;;2.67;;
21424;SDS011;10873;51.132;16.848;2023-01-01T13:07:47;4.82;;;2.88;;
21424;SDS011;10873;51.132;16.848;2023-01-01T13:10:21;3.50;;;2.70;;
21424;SDS011;10873;51.132;16.848;2023-01-01T13:12:49;5.85;;;2.63;;
21424;SDS011;10873;51.132;16.848;2023-01-01T13:15:33;6.38;;;2.88;;
21424;SDS011;10873;51.132;16.848;2023-01-01T13:18:18;4.10;;;2.53;;
21424;SDS011;10873;51.132;16.848;2023-01-01T13:20:53;4.60;;;2.60;;
21424;SDS011;10873;51.132;16.848;2023-01-01T13:23:40;3.90;;;2.58;;
21424;SDS011;10873;51.132;16.848;2023-01-01T13:32:04;5.53;;;2.85;;
21424;SDS011;10873;51.132;16.848;2023-01-01T13:34:36;4.15;;;3.03;;
21424;SDS011;10873;51.132;16.848;2023-01-01T13:37:31;4.97;;;2.90;;
21424;SDS011;10873;51.132;16.848;2023-01-01T13:40:30;3.63;;;2.60;;
21424;SDS011;10873;51.132;16.848;2023-01-01T13:43:18;4.53;;;2.80;;
21424;SDS011;10873;51.132;16.848;2023-01-01T13:45:49;4.30;;;2.67;;
21424;SDS011;10873;51.132;16.848;2023-01-01T13:48:25;3.88;;;2.50;;
21424;SDS011;10873;51.132;16.848;2023-01-01T13:51:00;6.45;;;3.10;;
21424;SDS011;10873;51.132;16.848;2023-01-01T13:53:47;3.88;;;2.80;;
21424;SDS011;10873;51.132;16.848;2023-01-01T13:56:28;3.15;;;2.60;;
21424;SDS011;10873;51.132;16.848;2023-01-01T13:59:11;5.38;;;2.92;;
21424;SDS011;10873;51.132;16.848;2023-01-01T14:02:13;5.10;;;2.97;;
21424;SDS011;10873;51.132;16.848;2023-01-01T14:04:45;3.33;;;2.67;;
21424;SDS011;10873;51.132;16.848;2023-01-01T14:07:17;4.88;;;2.88;;
21424;SDS011;10873;51.132;16.848;2023-01-01T14:09:49;5.32;;;2.97;;
21424;SDS011;10873;51.132;16.848;2023-01-01T14:12:16;4.43;;;3.10;;
21424;SDS011;10873;51.132;16.848;2023-01-01T14:14:43;3.35;;;2.90;;
21424;SDS011;10873;51.132;16.848;2023-01-01T14:17:10;3.90;;;2.80;;
21424;SDS011;10873;51.132;16.848;2023-01-01T14:19:38;6.20;;;3.20;;
21424;SDS011;10873;51.132;16.848;2023-01-01T14:22:06;4.35;;;3.15;;
21424;SDS011;10873;51.132;16.848;2023-01-01T14:24:33;3.78;;;2.78;;
21424;SDS011;10873;51.132;16.848;2023-01-01T14:27:06;3.60;;;3.10;;
21424;SDS011;10873;51.132;16.848;2023-01-01T14:29:32;3.90;;;3.13;;
21424;SDS011;10873;51.132;16.848;2023-01-01T14:32:10;3.47;;;2.80;;
21424;SDS011;10873;51.132;16.848;2023-01-01T14:34:37;4.72;;;2.80;;
21424;SDS011;10873;51.132;16.848;2023-01-01T14:37:04;4.13;;;3.13;;
21424;SDS011;10873;51.132;16.848;2023-01-01T14:39:43;4.03;;;2.88;;
21424;SDS011;10873;51.132;16.848;2023-01-01T14:42:11;3.97;;;2.90;;
21424;SDS011;10873;51.132;16.848;2023-01-01T14:44:41;4.13;;;2.80;;
21424;SDS011;10873;51.132;16.848;2023-01-01T14:47:14;4.15;;;2.67;;
21424;SDS011;10873;51.132;16.848;2023-01-01T14:49:47;5.35;;;3.40;;
21424;SDS011;10873;51.132;16.848;2023-01-01T14:52:16;5.07;;;3.17;;
21424;SDS011;10873;51.132;16.848;2023-01-01T14:54:46;4.50;;;3.10;;
21424;SDS011;10873;51.132;16.848;2023-01-01T14:57:16;3.95;;;2.90;;
21424;SDS011;10873;51.132;16.848;2023-01-01T14:59:48;4.53;;;3.08;;
21424;SDS011;10873;51.132;16.848;2023-01-01T15:02:19;5.70;;;3.63;;